Homeport Seattle

Current conditions, outlook, and status of Seattle.

 



Today is Boomtime, the 45th day of The Aftermath in the YOLD 3187

Content-type:text/html SDOT BRIDGE MINDER

Seattle Bridges

05:51:24 AM

Ballard CLOSED   5:50:51 AM

Fremont OPEN   5:32:57 AM

University OPEN   10:44:34 PM

Montlake OPEN   2:21:13 PM

Lower Spokane OPEN   3:49:35 AM

1st Ave S OPEN   6:20:43 PM

South Park OPEN   6:32:16 PM

Note: Bridge data is only as reliable as the
@sdotbridges Twitter feed.




Seattle Tides

Click images to embiggen or to change display options




Content-type:text/html

national weather service

2021/12/03 12:53 KSEA 031253Z 04008KT 10SM BKN150 03/00 A3034 RMK AO2 SLP283 T00330000
2021/12/03 12:53 KBFI 031253Z 00000KT 10SM CLR 04/01 A3036 RMK AO2 SLP282 T00440006


  KSEA KBFI
  SeaTac Airport Boeing Field
day: 03 03
time: 1253 1253
type: Automated Automated
cond: Mostly Cloudy Clear
     
Winds    
     
mph: 9 0
mph gusting: 0 0
kts: 8 0
kts gusting: 0 0
direction: 40 0
direction: Northeast Calm
     
Temperature and Humidity    
     
temp F: 37 39
dew point F: 32 33
temp C: 03 04
dew point C: 00 01
rel. humidity: 80 80
     
windchill F: 30 59
windchill C: -1 15
heat index F: 138 129
heat index C: 58 53
     
Clouds and Visibility    
     
cloud cover: Mostly Cloudy Clear
visibility mi: 10 10
visibility km: 16 16
     
Air pressure    
     
in HG: 30.34 30.36
mm HG: 770 771
kg/cm: 1.047688744 1.048379376
psi: 14.90161236 14.91143544
millibar: 1027 1028
     
Experimental and Esoteric    
     
prec tmp: T00330000 T00440006
storm:
sea inHG: 30.36 30.36
sea mmHG: 771 771
sea kgcm: 1.048578076 1.048476104
sea psi: 14.91425754 14.91280716
sea mbar: 1028 1028
     



NOAA Weather Radio Seattle -- KHB60
[ continuous ]

KHB60 coverage map

[ view larger map ]

 


2021.12.3

13 : 51 UTC


Local Metric Time

5.77


Unix epoch

1638539484

stardate

 

External Links

weather

[ NOAA weather radio ]

Fire Department 911 Incidents

another date (mm/dd/yyyy)

Puget Sound Waters

salish sea hydrophone network

[ Home || seattle aquarium | pt. townsend | san juan isl | lime kiln s.p ]

Traffic

KC DOT Cameras

 


- * - poop - * -